createdAt,value
2023-01-12T00:01:29.480Z,7.50
2023-01-12T00:03:56.512Z,7.60
2023-01-12T00:06:23.477Z,6.60
2023-01-12T00:08:51.011Z,7.80
2023-01-12T00:11:17.978Z,7.90
2023-01-12T00:13:44.789Z,7.30
2023-01-12T00:16:37.056Z,7.90
2023-01-12T00:19:11.080Z,6.70
2023-01-12T00:21:58.720Z,7.50
2023-01-12T00:24:27.141Z,7.70
2023-01-12T00:26:54.553Z,6.20
2023-01-12T00:29:21.574Z,7.30
2023-01-12T00:31:48.357Z,7.00
2023-01-12T00:34:15.262Z,6.60
2023-01-12T00:36:42.046Z,4.40
2023-01-12T00:39:08.944Z,5.80
2023-01-12T00:41:56.701Z,4.60
2023-01-12T00:44:42.828Z,6.50
2023-01-12T00:47:10.009Z,4.50
2023-01-12T00:49:37.016Z,5.90
2023-01-12T00:52:06.079Z,4.40
2023-01-12T00:54:34.455Z,6.50
2023-01-12T00:57:01.945Z,4.80
2023-01-12T00:59:29.339Z,6.10
2023-01-12T01:01:56.435Z,8.00
2023-01-12T01:04:24.182Z,6.90
2023-01-12T01:06:51.065Z,7.00
2023-01-12T01:09:17.894Z,4.70
2023-01-12T01:11:44.665Z,6.70
2023-01-12T01:14:11.472Z,6.80
2023-01-12T01:16:38.253Z,6.80
2023-01-12T01:19:05.983Z,8.10
2023-01-12T01:21:33.509Z,6.50
2023-01-12T01:24:00.425Z,7.80
2023-01-12T01:26:27.301Z,8.10
2023-01-12T01:28:54.100Z,8.10
2023-01-12T01:31:22.487Z,7.60
2023-01-12T01:33:49.595Z,8.90
2023-01-12T01:36:16.547Z,7.50
2023-01-12T01:38:44.607Z,8.20
2023-01-12T01:41:23.272Z,4.80
2023-01-12T01:44:02.927Z,6.80
2023-01-12T01:46:31.769Z,6.90
2023-01-12T01:49:10.282Z,6.20
2023-01-12T01:51:37.104Z,6.10
2023-01-12T01:54:04.025Z,6.70
2023-01-12T01:56:33.981Z,6.00
2023-01-12T01:59:21.304Z,6.90
2023-01-12T02:01:48.153Z,5.70
2023-01-12T02:04:15.944Z,7.60
2023-01-12T02:06:43.462Z,6.90
2023-01-12T02:09:15.244Z,6.00
2023-01-12T02:12:01.319Z,7.80
2023-01-12T02:14:47.020Z,8.10
2023-01-12T02:17:40.386Z,6.20
2023-01-12T02:20:48.711Z,6.10
2023-01-12T02:23:38.806Z,7.10
2023-01-12T02:26:35.806Z,2.90
2023-01-12T02:29:21.608Z,4.50
2023-01-12T02:32:23.543Z,4.80
2023-01-12T02:34:56.496Z,5.60
2023-01-12T02:37:39.171Z,4.90
2023-01-12T02:40:23.996Z,6.30
2023-01-12T02:43:09.792Z,6.00
2023-01-12T02:45:51.297Z,6.20
2023-01-12T02:48:22.612Z,5.40
2023-01-12T02:50:52.015Z,7.20
2023-01-12T02:53:29.662Z,5.60
2023-01-12T02:55:57.898Z,6.90
2023-01-12T02:58:24.682Z,6.80
2023-01-12T03:00:51.905Z,7.10
2023-01-12T03:03:19.438Z,7.40
2023-01-12T03:05:47.663Z,8.60
2023-01-12T03:08:16.700Z,9.40
2023-01-12T03:10:58.846Z,6.40
2023-01-12T03:13:25.594Z,6.90
2023-01-12T03:15:53.701Z,7.60
2023-01-12T03:18:59.877Z,7.70
2023-01-12T03:21:33.092Z,8.00
2023-01-12T03:24:12.078Z,8.00
2023-01-12T03:26:43.188Z,9.60
2023-01-12T03:29:25.397Z,10.20
2023-01-12T03:31:52.090Z,9.60
2023-01-12T03:34:18.893Z,9.50
2023-01-12T03:36:46.799Z,8.50
2023-01-12T03:39:44.758Z,7.70
2023-01-12T03:42:11.421Z,8.40
2023-01-12T03:44:43.042Z,9.90
2023-01-12T03:47:17.151Z,10.40
2023-01-12T03:49:55.750Z,8.00
2023-01-12T03:52:22.542Z,8.30
2023-01-12T03:54:49.443Z,10.00
2023-01-12T03:57:17.173Z,9.00
2023-01-12T03:59:43.986Z,8.20
2023-01-12T04:02:10.700Z,7.60
2023-01-12T04:04:37.385Z,10.10
2023-01-12T04:07:04.159Z,8.20
2023-01-12T04:09:30.958Z,8.40
2023-01-12T04:12:13.079Z,9.20
2023-01-12T04:14:43.252Z,9.50
2023-01-12T04:17:11.790Z,6.80
2023-01-12T04:19:38.572Z,9.00
2023-01-12T04:22:24.122Z,10.50
2023-01-12T04:24:50.867Z,10.40
2023-01-12T04:27:17.782Z,7.40
2023-01-12T04:29:44.898Z,8.10
2023-01-12T04:32:11.996Z,9.10
2023-01-12T04:34:39.628Z,10.50
2023-01-12T04:37:06.435Z,8.90
2023-01-12T04:39:33.166Z,10.40
2023-01-12T04:41:59.905Z,10.30
2023-01-12T04:44:26.596Z,7.90
2023-01-12T04:46:53.292Z,9.60
2023-01-12T04:49:20.169Z,8.50
2023-01-12T04:51:46.991Z,9.70
2023-01-12T04:54:13.751Z,11.50
2023-01-12T04:56:40.754Z,8.90
2023-01-12T04:59:09.879Z,10.30
2023-01-12T05:01:39.207Z,11.50
2023-01-12T05:04:07.958Z,10.40
2023-01-12T05:06:34.849Z,9.40
2023-01-12T05:09:20.444Z,11.70
2023-01-12T05:11:47.314Z,11.40
2023-01-12T05:14:14.058Z,10.80
2023-01-12T05:16:40.810Z,11.50
2023-01-12T05:19:08.671Z,8.60
2023-01-12T05:21:35.384Z,9.80
2023-01-12T05:24:02.087Z,11.90
2023-01-12T05:26:28.787Z,9.80
2023-01-12T05:28:55.546Z,11.90
2023-01-12T05:31:22.248Z,8.70
2023-01-12T05:33:49.136Z,9.10
2023-01-12T05:36:16.356Z,9.80
2023-01-12T05:38:43.151Z,10.60
2023-01-12T05:41:10.899Z,10.80
2023-01-12T05:43:53.208Z,10.00
2023-01-12T05:46:30.682Z,12.00
2023-01-12T05:48:57.904Z,13.00
2023-01-12T05:51:25.707Z,14.50
2023-01-12T05:53:52.548Z,12.10
2023-01-12T05:56:25.874Z,11.80
2023-01-12T05:58:53.933Z,13.10
2023-01-12T06:01:20.756Z,13.90
2023-01-12T06:03:54.314Z,12.00
2023-01-12T06:06:21.641Z,12.00
2023-01-12T06:08:50.642Z,9.90
2023-01-12T06:11:37.740Z,13.00
2023-01-12T06:14:04.517Z,11.00
2023-01-12T06:16:31.278Z,13.30
2023-01-12T06:18:57.970Z,15.00
2023-01-12T06:21:24.803Z,12.60
2023-01-12T06:23:51.777Z,14.90
2023-01-12T06:26:18.569Z,14.80
2023-01-12T06:28:45.281Z,14.90
2023-01-12T06:31:12.824Z,12.80
2023-01-12T06:33:39.919Z,13.80
2023-01-12T06:36:07.336Z,13.90
2023-01-12T06:38:34.871Z,13.80
2023-01-12T06:41:06.039Z,11.80
2023-01-12T06:43:32.850Z,12.30
2023-01-12T06:45:59.604Z,10.50
2023-01-12T06:48:26.430Z,10.40
2023-01-12T06:51:06.100Z,9.50
2023-01-12T06:53:32.818Z,10.50
2023-01-12T06:55:59.560Z,11.00
2023-01-12T06:58:26.273Z,10.90
2023-01-12T07:00:53.071Z,11.80
2023-01-12T07:03:20.399Z,8.80
2023-01-12T07:05:47.355Z,12.00
2023-01-12T07:08:19.109Z,10.30
2023-01-12T07:10:46.659Z,8.90
2023-01-12T07:13:13.703Z,9.10
2023-01-12T07:15:40.454Z,8.70
2023-01-12T07:18:07.223Z,12.60
2023-01-12T07:20:33.928Z,10.10
2023-01-12T07:23:00.864Z,9.90
2023-01-12T07:25:27.608Z,11.10
2023-01-12T07:27:58.073Z,9.10
2023-01-12T07:30:25.401Z,11.70
2023-01-12T07:32:52.215Z,9.60
2023-01-12T07:35:19.019Z,13.30
2023-01-12T07:37:53.908Z,9.90
2023-01-12T07:40:20.730Z,12.80
2023-01-12T07:42:47.521Z,12.40
2023-01-12T07:45:14.342Z,11.30
2023-01-12T07:47:41.115Z,9.70
2023-01-12T07:50:08.840Z,8.40
2023-01-12T07:52:35.724Z,14.20
2023-01-12T07:55:02.447Z,11.50
2023-01-12T07:57:29.491Z,13.20
2023-01-12T07:59:56.248Z,7.20
2023-01-12T08:02:23.030Z,10.90
2023-01-12T08:04:49.919Z,12.40
2023-01-12T08:07:16.603Z,12.60
2023-01-12T08:09:43.435Z,15.00
2023-01-12T08:12:10.199Z,13.40
2023-01-12T08:14:37.953Z,10.70
2023-01-12T08:17:07.924Z,13.80
2023-01-12T08:19:44.995Z,8.40
2023-01-12T08:22:19.071Z,12.50
2023-01-12T08:24:52.262Z,13.30
2023-01-12T08:27:19.141Z,11.30
2023-01-12T08:29:47.790Z,14.00
2023-01-12T08:32:16.532Z,12.60
2023-01-12T08:34:44.574Z,12.80
2023-01-12T08:37:12.847Z,12.30
2023-01-12T08:39:39.726Z,11.60
2023-01-12T08:42:06.810Z,12.30
2023-01-12T08:44:35.463Z,14.20
2023-01-12T08:47:03.266Z,14.30
2023-01-12T08:49:30.384Z,14.40
2023-01-12T08:51:57.196Z,13.90
2023-01-12T08:54:24.083Z,15.90
2023-01-12T08:56:51.304Z,15.30
2023-01-12T08:59:19.421Z,16.00
2023-01-12T09:01:46.387Z,14.60
2023-01-12T09:04:13.332Z,14.80
2023-01-12T09:06:44.451Z,14.50
2023-01-12T09:09:19.372Z,14.10
2023-01-12T09:11:47.102Z,14.20
2023-01-12T09:14:14.087Z,12.00
2023-01-12T09:16:41.024Z,14.70
2023-01-12T09:19:07.994Z,10.60
2023-01-12T09:21:37.760Z,14.00
2023-01-12T09:24:05.305Z,13.80
2023-01-12T09:26:36.057Z,13.90
2023-01-12T09:29:04.445Z,12.40
2023-01-12T09:31:32.415Z,13.40
2023-01-12T09:33:59.546Z,13.80
2023-01-12T09:36:34.182Z,14.50
2023-01-12T09:39:02.282Z,14.60
2023-01-12T09:41:48.203Z,13.50
2023-01-12T09:45:03.372Z,12.20
2023-01-12T09:47:39.852Z,15.00
2023-01-12T09:50:11.020Z,16.00
2023-01-12T09:52:44.880Z,15.60
2023-01-12T09:55:19.666Z,17.20
2023-01-12T09:58:19.449Z,15.80
2023-01-12T10:00:54.372Z,12.40
2023-01-12T10:03:30.077Z,12.50
2023-01-12T10:05:59.327Z,15.70
2023-01-12T10:08:48.112Z,17.50
2023-01-12T10:11:35.956Z,16.90
2023-01-12T10:14:22.487Z,17.80
2023-01-12T10:17:19.283Z,14.20
2023-01-12T10:20:02.624Z,16.10
2023-01-12T10:22:56.326Z,16.40
2023-01-12T10:25:29.305Z,17.50
2023-01-12T10:27:57.955Z,19.00
2023-01-12T10:30:30.479Z,18.60
2023-01-12T10:32:58.821Z,19.10
2023-01-12T10:35:25.909Z,17.90
2023-01-12T10:37:56.477Z,18.00
2023-01-12T10:40:26.998Z,20.20
2023-01-12T10:43:32.130Z,19.40
2023-01-12T10:46:22.513Z,17.70
2023-01-12T10:48:53.886Z,16.60
2023-01-12T10:51:27.975Z,15.10
2023-01-12T10:53:57.585Z,16.70
2023-01-12T10:56:27.823Z,14.70
2023-01-12T10:59:19.724Z,17.60
2023-01-12T11:01:51.242Z,19.10
2023-01-12T11:04:23.229Z,18.40
2023-01-12T11:07:05.245Z,19.10
2023-01-12T11:09:32.363Z,14.60
2023-01-12T11:12:03.681Z,10.70
2023-01-12T11:14:31.823Z,10.80
2023-01-12T11:17:24.797Z,10.10
2023-01-12T11:19:51.500Z,10.10
2023-01-12T11:22:27.505Z,11.30
2023-01-12T11:25:09.886Z,12.50
2023-01-12T11:27:42.224Z,14.20
2023-01-12T11:30:32.093Z,15.80
2023-01-12T11:33:01.624Z,15.20
2023-01-12T11:35:41.937Z,18.20
2023-01-12T11:38:45.084Z,15.10
2023-01-12T11:41:29.239Z,13.50
2023-01-12T11:44:18.234Z,12.50
2023-01-12T11:46:52.341Z,12.80
2023-01-12T11:49:19.111Z,13.20
2023-01-12T11:51:48.774Z,13.80
2023-01-12T11:54:16.924Z,11.80
2023-01-12T11:57:01.504Z,15.40
2023-01-12T12:00:04.560Z,14.60
2023-01-12T12:02:46.936Z,14.30
2023-01-12T12:05:21.152Z,13.80
2023-01-12T12:07:55.527Z,15.70
2023-01-12T12:10:24.303Z,11.30
2023-01-12T12:13:10.623Z,12.30
2023-01-12T12:16:15.225Z,14.20
2023-01-12T12:18:50.031Z,10.10
2023-01-12T12:21:44.481Z,8.90
2023-01-12T12:24:39.222Z,10.20
2023-01-12T12:27:35.411Z,8.80
2023-01-12T12:30:02.113Z,12.20
2023-01-12T12:32:41.193Z,9.20
2023-01-12T12:35:26.791Z,11.70
2023-01-12T12:38:12.514Z,13.30
2023-01-12T12:41:25.843Z,15.30
2023-01-12T12:44:44.400Z,19.10
2023-01-12T12:47:36.342Z,20.30
2023-01-12T12:50:04.011Z,18.70
2023-01-12T12:52:34.976Z,19.80
2023-01-12T12:55:01.701Z,19.30
2023-01-12T12:57:28.419Z,15.30
2023-01-12T12:59:57.075Z,16.70
2023-01-12T13:03:00.070Z,15.90
2023-01-12T13:05:41.917Z,14.70
2023-01-12T13:08:19.216Z,15.90
2023-01-12T13:10:59.963Z,14.50
2023-01-12T13:13:34.034Z,15.40
2023-01-12T13:16:10.083Z,12.80
2023-01-12T13:19:04.503Z,13.00
2023-01-12T13:21:50.620Z,16.00
2023-01-12T13:24:22.372Z,15.60
2023-01-12T13:26:53.873Z,17.10
2023-01-12T13:29:23.797Z,17.20
2023-01-12T13:31:51.167Z,18.70
2023-01-12T13:34:36.449Z,19.40
2023-01-12T13:37:19.150Z,16.70
2023-01-12T13:39:52.504Z,15.30
2023-01-12T13:42:52.701Z,19.30
2023-01-12T13:45:19.852Z,17.40
2023-01-12T13:47:47.444Z,17.10
2023-01-12T13:50:18.246Z,16.90
2023-01-12T13:52:44.981Z,18.40
2023-01-12T13:55:22.946Z,18.00
2023-01-12T13:57:57.756Z,19.80
2023-01-12T14:00:25.055Z,17.00
2023-01-12T14:02:52.219Z,20.30
2023-01-12T14:05:40.543Z,21.80
2023-01-12T14:08:50.140Z,19.90
2023-01-12T14:11:36.492Z,19.40
2023-01-12T14:14:31.343Z,19.60
2023-01-12T14:17:16.825Z,20.10
2023-01-12T14:19:49.683Z,16.90
2023-01-12T14:22:19.755Z,18.90
2023-01-12T14:24:46.492Z,18.50
2023-01-12T14:27:21.311Z,17.50
2023-01-12T14:29:48.067Z,16.10
2023-01-12T14:32:14.768Z,14.50
2023-01-12T14:34:48.992Z,15.30
2023-01-12T14:37:34.349Z,12.90
2023-01-12T14:40:01.143Z,13.20
2023-01-12T14:42:46.784Z,13.60
2023-01-12T14:45:44.773Z,17.30
2023-01-12T14:48:28.108Z,14.30
2023-01-12T14:51:01.547Z,12.80
2023-01-12T14:53:33.135Z,11.00
2023-01-12T14:56:15.520Z,11.60
2023-01-12T14:58:43.816Z,11.50
2023-01-12T15:01:11.192Z,14.40
2023-01-12T15:03:43.754Z,11.40
2023-01-12T15:06:14.833Z,14.80
2023-01-12T15:08:52.581Z,14.30
2023-01-12T15:11:32.164Z,10.50
2023-01-12T15:13:59.657Z,12.30
2023-01-12T15:16:45.370Z,8.00
2023-01-12T15:19:30.861Z,11.90
2023-01-12T15:22:16.653Z,10.00
2023-01-12T15:25:02.083Z,9.90
2023-01-12T15:27:29.399Z,7.80
2023-01-12T15:29:56.492Z,10.50
2023-01-12T15:32:45.499Z,9.10
2023-01-12T15:35:18.295Z,11.90
2023-01-12T15:37:45.218Z,10.90
2023-01-12T15:40:15.196Z,12.10
2023-01-12T15:42:42.331Z,12.20
2023-01-12T15:45:31.983Z,11.20
2023-01-12T15:47:58.736Z,10.00
2023-01-12T15:50:25.619Z,12.30
2023-01-12T15:52:52.819Z,11.90
2023-01-12T15:55:20.975Z,13.50
2023-01-12T15:57:47.678Z,11.50
2023-01-12T16:00:16.193Z,8.10
2023-01-12T16:02:45.590Z,8.70
2023-01-12T16:05:12.429Z,11.50
2023-01-12T16:07:39.167Z,12.90
2023-01-12T16:10:06.676Z,11.30
2023-01-12T16:12:33.388Z,11.70
2023-01-12T16:15:01.102Z,11.30
2023-01-12T16:17:27.884Z,11.10
2023-01-12T16:19:54.768Z,9.10
2023-01-12T16:22:26.596Z,11.40
2023-01-12T16:24:54.994Z,9.80
2023-01-12T16:27:23.376Z,9.40
2023-01-12T16:29:50.423Z,12.50
2023-01-12T16:32:17.777Z,11.30
2023-01-12T16:34:45.953Z,5.90
2023-01-12T16:37:13.765Z,7.60
2023-01-12T16:39:41.093Z,9.30
2023-01-12T16:42:08.333Z,8.90
2023-01-12T16:44:38.602Z,5.90
2023-01-12T16:47:06.605Z,9.00
2023-01-12T16:49:36.103Z,10.60
2023-01-12T16:52:04.003Z,6.40
2023-01-12T16:54:30.895Z,9.00
2023-01-12T16:56:58.975Z,4.90
2023-01-12T16:59:28.495Z,6.40
2023-01-12T17:01:55.614Z,7.70
2023-01-12T17:04:23.365Z,8.60
2023-01-12T17:06:50.964Z,7.30
2023-01-12T17:09:18.065Z,8.70
2023-01-12T17:11:45.068Z,9.00
2023-01-12T17:14:24.609Z,7.60
2023-01-12T17:16:52.598Z,4.70
2023-01-12T17:19:20.029Z,8.70
2023-01-12T17:21:47.220Z,7.40
2023-01-12T17:24:17.958Z,8.00
2023-01-12T17:26:45.383Z,6.40
2023-01-12T17:29:12.173Z,8.00
2023-01-12T17:31:40.008Z,6.30
2023-01-12T17:34:08.000Z,7.10
2023-01-12T17:36:34.729Z,6.70
2023-01-12T17:39:01.440Z,7.60
2023-01-12T17:41:47.010Z,5.40
2023-01-12T17:44:13.787Z,6.30
2023-01-12T17:46:40.583Z,7.60
2023-01-12T17:49:08.211Z,8.60
2023-01-12T17:51:35.518Z,7.00
2023-01-12T17:54:03.338Z,10.10
2023-01-12T17:56:31.605Z,8.30
2023-01-12T17:58:58.799Z,8.50
2023-01-12T18:01:26.822Z,8.90
2023-01-12T18:03:53.621Z,8.80
2023-01-12T18:06:26.378Z,9.10
2023-01-12T18:08:56.562Z,8.50
2023-01-12T18:11:23.667Z,6.50
2023-01-12T18:13:50.417Z,8.60
2023-01-12T18:16:17.216Z,5.30
2023-01-12T18:18:44.225Z,8.10
2023-01-12T18:21:15.378Z,8.70
2023-01-12T18:23:43.596Z,9.00
2023-01-12T18:26:16.130Z,9.20
2023-01-12T18:28:43.093Z,7.00
2023-01-12T18:31:14.948Z,7.50
2023-01-12T18:33:41.989Z,10.00
2023-01-12T18:36:10.467Z,7.70
2023-01-12T18:38:40.173Z,7.30
2023-01-12T18:41:25.710Z,10.80
2023-01-12T18:43:53.014Z,10.60
2023-01-12T18:46:20.022Z,8.90
2023-01-12T18:48:47.623Z,8.90
2023-01-12T18:51:33.148Z,6.70
2023-01-12T18:54:00.433Z,7.10
2023-01-12T18:56:27.314Z,8.30
2023-01-12T18:58:54.146Z,8.00
2023-01-12T19:01:27.072Z,8.20
2023-01-12T19:03:54.083Z,8.40
2023-01-12T19:06:40.613Z,8.20
2023-01-12T19:09:26.403Z,8.70
2023-01-12T19:11:53.221Z,6.20
2023-01-12T19:14:38.817Z,10.00
2023-01-12T19:17:24.532Z,11.00
2023-01-12T19:19:51.432Z,18.70
2023-01-12T19:22:37.040Z,14.50
2023-01-12T19:25:23.309Z,13.20
2023-01-12T19:28:09.302Z,11.70
2023-01-12T19:30:39.111Z,12.90
2023-01-12T19:33:14.949Z,17.50
2023-01-12T19:35:45.814Z,12.40
2023-01-12T19:38:13.672Z,14.20
2023-01-12T19:40:46.837Z,17.10
2023-01-12T19:43:19.019Z,8.40
2023-01-12T19:45:48.178Z,9.70
2023-01-12T19:48:15.859Z,6.80
2023-01-12T19:50:44.107Z,9.90
2023-01-12T19:53:15.743Z,4.30
2023-01-12T19:55:42.621Z,11.00
2023-01-12T19:58:09.513Z,10.10
2023-01-12T20:00:46.205Z,10.60
2023-01-12T20:03:14.391Z,14.10
2023-01-12T20:05:42.136Z,9.90
2023-01-12T20:08:09.352Z,7.00
2023-01-12T20:10:38.204Z,8.50
2023-01-12T20:13:06.246Z,10.50
2023-01-12T20:15:33.608Z,11.60
2023-01-12T20:18:02.194Z,7.70
2023-01-12T20:20:29.907Z,7.20
2023-01-12T20:22:56.629Z,11.90
2023-01-12T20:25:24.133Z,10.80
2023-01-12T20:27:51.337Z,11.30
2023-01-12T20:30:31.941Z,7.50
2023-01-12T20:33:03.617Z,10.20
2023-01-12T20:35:30.358Z,10.90
2023-01-12T20:37:57.332Z,13.50
2023-01-12T20:40:24.062Z,11.40
2023-01-12T20:42:50.808Z,16.60
2023-01-12T20:45:19.283Z,17.10
2023-01-12T20:47:46.039Z,15.00
2023-01-12T20:50:14.789Z,16.90
2023-01-12T20:52:41.792Z,16.00
2023-01-12T20:55:08.699Z,12.10
2023-01-12T20:57:36.722Z,11.10
2023-01-12T21:00:05.391Z,11.70
2023-01-12T21:02:32.222Z,11.40
2023-01-12T21:04:58.991Z,11.80
2023-01-12T21:07:25.787Z,11.50
2023-01-12T21:09:52.652Z,11.10
2023-01-12T21:12:19.772Z,12.40
2023-01-12T21:14:46.823Z,13.00
2023-01-12T21:17:13.574Z,10.90
2023-01-12T21:19:40.598Z,11.60
2023-01-12T21:22:07.296Z,11.90
2023-01-12T21:24:34.200Z,13.20
2023-01-12T21:27:01.056Z,9.90
2023-01-12T21:29:27.865Z,8.70
2023-01-12T21:31:54.630Z,11.80
2023-01-12T21:34:21.877Z,9.60
2023-01-12T21:36:49.081Z,13.40
2023-01-12T21:39:15.989Z,11.90
2023-01-12T21:42:01.488Z,10.10
2023-01-12T21:44:28.287Z,12.20
2023-01-12T21:46:55.004Z,12.20
2023-01-12T21:49:21.769Z,11.40
2023-01-12T21:51:48.666Z,11.80
2023-01-12T21:54:15.377Z,10.90
2023-01-12T21:56:42.044Z,11.80
2023-01-12T21:59:10.288Z,12.50
2023-01-12T22:01:37.193Z,12.60
2023-01-12T22:04:04.184Z,12.30
2023-01-12T22:06:31.271Z,12.00
2023-01-12T22:08:58.180Z,12.10
2023-01-12T22:11:24.971Z,11.20
2023-01-12T22:13:51.782Z,12.20
2023-01-12T22:16:18.968Z,11.40
2023-01-12T22:18:47.258Z,13.20
2023-01-12T22:21:14.042Z,12.30
2023-01-12T22:23:40.763Z,11.80
2023-01-12T22:26:09.468Z,12.90
2023-01-12T22:28:37.423Z,13.70
2023-01-12T22:31:23.573Z,13.00
2023-01-12T22:33:58.547Z,12.90
2023-01-12T22:36:25.320Z,13.10
2023-01-12T22:38:52.021Z,14.30
2023-01-12T22:41:21.756Z,11.70
2023-01-12T22:43:49.260Z,12.50
2023-01-12T22:46:25.773Z,11.70
2023-01-12T22:48:53.765Z,12.80
2023-01-12T22:51:24.856Z,12.80
2023-01-12T22:53:51.643Z,12.10
2023-01-12T22:56:18.383Z,10.70
2023-01-12T22:58:52.433Z,7.60
2023-01-12T23:01:21.511Z,10.00
2023-01-12T23:03:48.760Z,10.00
2023-01-12T23:06:16.654Z,10.10
2023-01-12T23:08:43.895Z,10.60
2023-01-12T23:11:15.729Z,11.20
2023-01-12T23:13:43.170Z,11.10
2023-01-12T23:16:10.754Z,11.70
2023-01-12T23:18:38.747Z,12.40
2023-01-12T23:21:35.523Z,12.00
2023-01-12T23:24:02.301Z,11.60
2023-01-12T23:26:31.207Z,10.40
2023-01-12T23:29:00.309Z,10.40
2023-01-12T23:31:29.257Z,11.50
2023-01-12T23:33:57.151Z,10.90
2023-01-12T23:36:25.715Z,11.40
2023-01-12T23:42:52.180Z,12.40
2023-01-12T23:45:18.961Z,12.00
2023-01-12T23:47:45.742Z,11.30
2023-01-12T23:50:12.711Z,11.50
2023-01-12T23:52:39.487Z,10.30
2023-01-12T23:55:07.057Z,13.00
2023-01-12T23:57:34.401Z,12.00
